sensor_id;sensor_type;location;lat;lon;timestamp;temperature;humidity
38726;DHT22;24474;48.906;8.808;2022-09-09T00:07:50;16.10;99.90
38726;DHT22;24474;48.906;8.808;2022-09-09T00:10:26;16.10;99.90
38726;DHT22;24474;48.906;8.808;2022-09-09T00:21:48;16.20;99.90
38726;DHT22;24474;48.906;8.808;2022-09-09T00:24:41;16.10;99.90
38726;DHT22;24474;48.906;8.808;2022-09-09T00:28:07;16.10;99.90
38726;DHT22;24474;48.906;8.808;2022-09-09T00:30:24;16.10;99.90
38726;DHT22;24474;48.906;8.808;2022-09-09T00:32:54;16.10;99.90
38726;DHT22;24474;48.906;8.808;2022-09-09T00:35:37;16.10;99.90
38726;DHT22;24474;48.906;8.808;2022-09-09T00:38:14;16.10;99.90
38726;DHT22;24474;48.906;8.808;2022-09-09T00:40:53;16.10;99.90
38726;DHT22;24474;48.906;8.808;2022-09-09T00:43:38;16.10;99.90
38726;DHT22;24474;48.906;8.808;2022-09-09T00:57:40;16.10;99.90
38726;DHT22;24474;48.906;8.808;2022-09-09T01:01:00;16.10;99.90
38726;DHT22;24474;48.906;8.808;2022-09-09T01:03:37;16.10;99.90
38726;DHT22;24474;48.906;8.808;2022-09-09T01:09:38;16.10;99.90
38726;DHT22;24474;48.906;8.808;2022-09-09T01:12:15;16.10;99.90
38726;DHT22;24474;48.906;8.808;2022-09-09T01:14:48;16.10;99.90
38726;DHT22;24474;48.906;8.808;2022-09-09T01:20:24;16.10;99.90
38726;DHT22;24474;48.906;8.808;2022-09-09T01:26:13;16.10;99.90
38726;DHT22;24474;48.906;8.808;2022-09-09T01:28:44;16.10;99.90
38726;DHT22;24474;48.906;8.808;2022-09-09T01:31:15;16.10;99.90
38726;DHT22;24474;48.906;8.808;2022-09-09T01:33:42;16.10;99.90
38726;DHT22;24474;48.906;8.808;2022-09-09T01:36:51;16.20;99.90
38726;DHT22;24474;48.906;8.808;2022-09-09T01:39:09;16.10;99.90
38726;DHT22;24474;48.906;8.808;2022-09-09T01:41:35;16.10;99.90
38726;DHT22;24474;48.906;8.808;2022-09-09T01:44:01;16.10;99.90
38726;DHT22;24474;48.906;8.808;2022-09-09T01:46:29;16.10;99.90
38726;DHT22;24474;48.906;8.808;2022-09-09T01:48:56;16.10;99.90
38726;DHT22;24474;48.906;8.808;2022-09-09T01:51:23;16.20;99.90
38726;DHT22;24474;48.906;8.808;2022-09-09T01:53:49;16.20;99.90
38726;DHT22;24474;48.906;8.808;2022-09-09T02:05:38;16.00;99.90
38726;DHT22;24474;48.906;8.808;2022-09-09T02:08:41;15.90;99.90
38726;DHT22;24474;48.906;8.808;2022-09-09T02:11:16;15.90;99.90
38726;DHT22;24474;48.906;8.808;2022-09-09T02:13:48;15.90;99.90
38726;DHT22;24474;48.906;8.808;2022-09-09T02:16:19;15.80;99.90
38726;DHT22;24474;48.906;8.808;2022-09-09T02:19:23;15.80;99.90
38726;DHT22;24474;48.906;8.808;2022-09-09T02:21:53;15.80;99.90
38726;DHT22;24474;48.906;8.808;2022-09-09T02:24:21;15.80;99.90
38726;DHT22;24474;48.906;8.808;2022-09-09T02:26:50;15.70;99.90
38726;DHT22;24474;48.906;8.808;2022-09-09T02:29:31;15.80;99.90
38726;DHT22;24474;48.906;8.808;2022-09-09T02:32:02;15.70;99.90
38726;DHT22;24474;48.906;8.808;2022-09-09T02:34:32;15.70;99.90
38726;DHT22;24474;48.906;8.808;2022-09-09T02:36:59;15.70;99.90
38726;DHT22;24474;48.906;8.808;2022-09-09T02:39:26;15.70;99.90
38726;DHT22;24474;48.906;8.808;2022-09-09T02:41:51;15.70;99.90
38726;DHT22;24474;48.906;8.808;2022-09-09T02:44:20;15.60;99.90
38726;DHT22;24474;48.906;8.808;2022-09-09T02:50:35;15.60;99.90
38726;DHT22;24474;48.906;8.808;2022-09-09T02:56:04;15.60;99.90
38726;DHT22;24474;48.906;8.808;2022-09-09T02:58:35;15.60;99.90
38726;DHT22;24474;48.906;8.808;2022-09-09T03:01:06;15.60;99.90
38726;DHT22;24474;48.906;8.808;2022-09-09T03:03:32;15.60;99.90
38726;DHT22;24474;48.906;8.808;2022-09-09T03:05:59;15.70;99.90
38726;DHT22;24474;48.906;8.808;2022-09-09T03:08:26;15.60;99.90
38726;DHT22;24474;48.906;8.808;2022-09-09T03:10:54;15.60;99.90
38726;DHT22;24474;48.906;8.808;2022-09-09T03:13:21;15.60;99.90
38726;DHT22;24474;48.906;8.808;2022-09-09T03:15:47;15.60;99.90
38726;DHT22;24474;48.906;8.808;2022-09-09T03:18:14;15.60;99.90
38726;DHT22;24474;48.906;8.808;2022-09-09T03:20:40;15.60;99.90
38726;DHT22;24474;48.906;8.808;2022-09-09T03:23:09;15.50;99.90
38726;DHT22;24474;48.906;8.808;2022-09-09T03:25:36;15.50;99.90
38726;DHT22;24474;48.906;8.808;2022-09-09T03:28:02;15.60;99.90
38726;DHT22;24474;48.906;8.808;2022-09-09T03:30:28;15.50;99.90
38726;DHT22;24474;48.906;8.808;2022-09-09T03:32:55;15.50;99.90
38726;DHT22;24474;48.906;8.808;2022-09-09T03:35:22;15.40;99.90
38726;DHT22;24474;48.906;8.808;2022-09-09T03:37:48;15.40;99.90
38726;DHT22;24474;48.906;8.808;2022-09-09T03:40:15;15.40;99.90
38726;DHT22;24474;48.906;8.808;2022-09-09T03:42:42;15.40;99.90
38726;DHT22;24474;48.906;8.808;2022-09-09T03:45:09;15.30;99.90
38726;DHT22;24474;48.906;8.808;2022-09-09T03:47:37;15.30;99.90
38726;DHT22;24474;48.906;8.808;2022-09-09T03:50:04;15.30;99.90
38726;DHT22;24474;48.906;8.808;2022-09-09T03:52:38;15.20;99.90
38726;DHT22;24474;48.906;8.808;2022-09-09T03:55:04;15.20;99.90
38726;DHT22;24474;48.906;8.808;2022-09-09T03:57:31;15.20;99.90
38726;DHT22;24474;48.906;8.808;2022-09-09T04:00:03;15.20;99.90
38726;DHT22;24474;48.906;8.808;2022-09-09T04:02:30;15.20;99.90
38726;DHT22;24474;48.906;8.808;2022-09-09T04:04:56;15.20;99.90
38726;DHT22;24474;48.906;8.808;2022-09-09T04:07:21;15.20;99.90
38726;DHT22;24474;48.906;8.808;2022-09-09T04:09:49;15.20;99.90
38726;DHT22;24474;48.906;8.808;2022-09-09T04:12:15;15.20;99.90
38726;DHT22;24474;48.906;8.808;2022-09-09T04:14:42;15.20;99.90
38726;DHT22;24474;48.906;8.808;2022-09-09T04:17:08;15.10;99.90
38726;DHT22;24474;48.906;8.808;2022-09-09T04:19:33;15.20;99.90
38726;DHT22;24474;48.906;8.808;2022-09-09T04:22:00;15.20;99.90
38726;DHT22;24474;48.906;8.808;2022-09-09T04:24:26;15.20;99.90
38726;DHT22;24474;48.906;8.808;2022-09-09T04:26:56;15.20;99.90
38726;DHT22;24474;48.906;8.808;2022-09-09T04:29:21;15.20;99.90
38726;DHT22;24474;48.906;8.808;2022-09-09T04:31:48;15.20;99.90
38726;DHT22;24474;48.906;8.808;2022-09-09T04:34:14;15.10;99.90
38726;DHT22;24474;48.906;8.808;2022-09-09T04:36:40;15.10;99.90
38726;DHT22;24474;48.906;8.808;2022-09-09T04:39:06;15.10;99.90
38726;DHT22;24474;48.906;8.808;2022-09-09T04:41:32;15.10;99.90
38726;DHT22;24474;48.906;8.808;2022-09-09T04:43:57;15.10;99.90
38726;DHT22;24474;48.906;8.808;2022-09-09T04:46:24;15.00;99.90
38726;DHT22;24474;48.906;8.808;2022-09-09T04:48:52;15.00;99.90
38726;DHT22;24474;48.906;8.808;2022-09-09T04:51:18;15.00;99.90
38726;DHT22;24474;48.906;8.808;2022-09-09T04:53:44;15.00;99.90
38726;DHT22;24474;48.906;8.808;2022-09-09T04:56:16;15.00;99.90
38726;DHT22;24474;48.906;8.808;2022-09-09T04:58:42;15.00;99.90
38726;DHT22;24474;48.906;8.808;2022-09-09T05:01:15;15.00;99.90
38726;DHT22;24474;48.906;8.808;2022-09-09T05:03:44;15.00;99.90
38726;DHT22;24474;48.906;8.808;2022-09-09T05:06:15;14.90;99.90
38726;DHT22;24474;48.906;8.808;2022-09-09T05:08:42;15.00;99.90
38726;DHT22;24474;48.906;8.808;2022-09-09T05:11:22;14.90;99.90
38726;DHT22;24474;48.906;8.808;2022-09-09T05:13:51;14.90;99.90
38726;DHT22;24474;48.906;8.808;2022-09-09T05:16:19;14.90;99.90
38726;DHT22;24474;48.906;8.808;2022-09-09T05:18:46;15.00;99.90
38726;DHT22;24474;48.906;8.808;2022-09-09T05:21:14;15.00;99.90
38726;DHT22;24474;48.906;8.808;2022-09-09T05:23:40;15.00;99.90
38726;DHT22;24474;48.906;8.808;2022-09-09T05:26:12;15.00;99.90
38726;DHT22;24474;48.906;8.808;2022-09-09T05:28:40;15.00;99.90
38726;DHT22;24474;48.906;8.808;2022-09-09T05:31:08;15.00;99.90
38726;DHT22;24474;48.906;8.808;2022-09-09T05:33:35;15.00;99.90
38726;DHT22;24474;48.906;8.808;2022-09-09T05:36:05;15.10;99.90
38726;DHT22;24474;48.906;8.808;2022-09-09T05:38:33;15.10;99.90
38726;DHT22;24474;48.906;8.808;2022-09-09T05:41:01;15.10;99.90
38726;DHT22;24474;48.906;8.808;2022-09-09T05:43:29;15.10;99.90
38726;DHT22;24474;48.906;8.808;2022-09-09T05:48:32;15.20;99.90
38726;DHT22;24474;48.906;8.808;2022-09-09T05:51:00;15.20;99.90
38726;DHT22;24474;48.906;8.808;2022-09-09T05:53:27;15.30;99.90
38726;DHT22;24474;48.906;8.808;2022-09-09T05:56:13;15.30;99.90
38726;DHT22;24474;48.906;8.808;2022-09-09T05:58:45;15.30;99.90
38726;DHT22;24474;48.906;8.808;2022-09-09T06:01:17;15.30;99.90
38726;DHT22;24474;48.906;8.808;2022-09-09T06:03:45;15.30;99.90
38726;DHT22;24474;48.906;8.808;2022-09-09T06:06:13;15.30;99.90
38726;DHT22;24474;48.906;8.808;2022-09-09T06:08:41;15.40;99.90
38726;DHT22;24474;48.906;8.808;2022-09-09T06:11:24;15.40;99.90
38726;DHT22;24474;48.906;8.808;2022-09-09T06:13:53;15.30;99.90
38726;DHT22;24474;48.906;8.808;2022-09-09T06:16:26;15.30;99.90
38726;DHT22;24474;48.906;8.808;2022-09-09T06:18:53;15.30;99.90
38726;DHT22;24474;48.906;8.808;2022-09-09T06:23:52;15.30;99.90
38726;DHT22;24474;48.906;8.808;2022-09-09T06:26:24;15.40;99.90
38726;DHT22;24474;48.906;8.808;2022-09-09T06:28:53;15.40;99.90
38726;DHT22;24474;48.906;8.808;2022-09-09T06:31:21;15.50;99.90
38726;DHT22;24474;48.906;8.808;2022-09-09T06:33:49;15.60;99.90
38726;DHT22;24474;48.906;8.808;2022-09-09T06:36:19;15.80;99.90
38726;DHT22;24474;48.906;8.808;2022-09-09T06:38:45;15.90;99.90
38726;DHT22;24474;48.906;8.808;2022-09-09T06:41:14;16.10;99.90
38726;DHT22;24474;48.906;8.808;2022-09-09T06:43:44;16.20;99.90
38726;DHT22;24474;48.906;8.808;2022-09-09T06:46:15;16.30;99.90
38726;DHT22;24474;48.906;8.808;2022-09-09T06:48:43;16.40;99.90
38726;DHT22;24474;48.906;8.808;2022-09-09T06:51:14;16.40;99.90
38726;DHT22;24474;48.906;8.808;2022-09-09T06:53:41;16.40;99.90
38726;DHT22;24474;48.906;8.808;2022-09-09T06:58:40;16.50;99.90
38726;DHT22;24474;48.906;8.808;2022-09-09T07:01:13;16.50;99.90
38726;DHT22;24474;48.906;8.808;2022-09-09T07:03:41;16.60;99.90
38726;DHT22;24474;48.906;8.808;2022-09-09T07:06:24;16.70;99.90
38726;DHT22;24474;48.906;8.808;2022-09-09T07:08:55;16.90;99.90
38726;DHT22;24474;48.906;8.808;2022-09-09T07:11:22;17.00;99.90
38726;DHT22;24474;48.906;8.808;2022-09-09T07:13:49;17.00;99.90
38726;DHT22;24474;48.906;8.808;2022-09-09T07:16:17;17.10;99.90
38726;DHT22;24474;48.906;8.808;2022-09-09T07:18:44;17.10;99.90
38726;DHT22;24474;48.906;8.808;2022-09-09T07:21:11;17.10;99.90
38726;DHT22;24474;48.906;8.808;2022-09-09T07:23:38;17.10;99.90
38726;DHT22;24474;48.906;8.808;2022-09-09T07:26:26;17.20;99.90
38726;DHT22;24474;48.906;8.808;2022-09-09T07:28:52;17.30;99.90
38726;DHT22;24474;48.906;8.808;2022-09-09T07:31:21;17.30;99.90
38726;DHT22;24474;48.906;8.808;2022-09-09T07:33:48;17.30;99.90
38726;DHT22;24474;48.906;8.808;2022-09-09T07:36:20;17.30;99.90
38726;DHT22;24474;48.906;8.808;2022-09-09T07:38:53;17.30;99.90
38726;DHT22;24474;48.906;8.808;2022-09-09T07:41:26;17.30;99.90
38726;DHT22;24474;48.906;8.808;2022-09-09T07:43:54;17.30;99.90
38726;DHT22;24474;48.906;8.808;2022-09-09T07:46:41;17.30;99.90
38726;DHT22;24474;48.906;8.808;2022-09-09T07:49:27;17.40;99.90
38726;DHT22;24474;48.906;8.808;2022-09-09T07:51:53;17.60;99.90
38726;DHT22;24474;48.906;8.808;2022-09-09T07:54:20;17.70;99.90
38726;DHT22;24474;48.906;8.808;2022-09-09T07:56:49;17.80;99.90
38726;DHT22;24474;48.906;8.808;2022-09-09T07:59:15;18.00;99.90
38726;DHT22;24474;48.906;8.808;2022-09-09T08:01:48;18.00;99.90
38726;DHT22;24474;48.906;8.808;2022-09-09T08:04:17;18.10;99.90
38726;DHT22;24474;48.906;8.808;2022-09-09T08:06:49;18.00;99.90
38726;DHT22;24474;48.906;8.808;2022-09-09T08:09:17;18.10;99.90
38726;DHT22;24474;48.906;8.808;2022-09-09T08:11:44;18.10;99.90
38726;DHT22;24474;48.906;8.808;2022-09-09T08:14:12;18.30;99.90
38726;DHT22;24474;48.906;8.808;2022-09-09T08:16:40;18.40;99.90
38726;DHT22;24474;48.906;8.808;2022-09-09T08:19:08;18.60;99.90
38726;DHT22;24474;48.906;8.808;2022-09-09T08:21:36;18.60;99.90
38726;DHT22;24474;48.906;8.808;2022-09-09T08:24:03;18.60;99.90
38726;DHT22;24474;48.906;8.808;2022-09-09T08:26:37;18.50;99.90
38726;DHT22;24474;48.906;8.808;2022-09-09T08:29:06;18.50;99.90
38726;DHT22;24474;48.906;8.808;2022-09-09T08:31:35;18.50;99.90
38726;DHT22;24474;48.906;8.808;2022-09-09T08:34:03;18.60;99.90
38726;DHT22;24474;48.906;8.808;2022-09-09T08:36:31;18.80;99.90
38726;DHT22;24474;48.906;8.808;2022-09-09T08:39:00;18.90;99.90
38726;DHT22;24474;48.906;8.808;2022-09-09T08:53:14;19.20;99.90
38726;DHT22;24474;48.906;8.808;2022-09-09T08:56:01;19.40;99.90
38726;DHT22;24474;48.906;8.808;2022-09-09T08:58:32;19.50;99.90
38726;DHT22;24474;48.906;8.808;2022-09-09T09:07:35;19.90;99.90
38726;DHT22;24474;48.906;8.808;2022-09-09T09:12:50;19.70;99.90
38726;DHT22;24474;48.906;8.808;2022-09-09T09:15:23;19.70;99.90
38726;DHT22;24474;48.906;8.808;2022-09-09T09:17:50;19.80;99.90
38726;DHT22;24474;48.906;8.808;2022-09-09T09:20:21;19.80;99.90
38726;DHT22;24474;48.906;8.808;2022-09-09T09:22:52;19.90;99.90
38726;DHT22;24474;48.906;8.808;2022-09-09T09:25:31;19.90;99.90
38726;DHT22;24474;48.906;8.808;2022-09-09T09:28:26;19.90;99.90
38726;DHT22;24474;48.906;8.808;2022-09-09T09:31:03;19.80;99.90
38726;DHT22;24474;48.906;8.808;2022-09-09T09:33:52;19.80;99.90
38726;DHT22;24474;48.906;8.808;2022-09-09T09:36:20;19.60;99.90
38726;DHT22;24474;48.906;8.808;2022-09-09T09:38:58;19.40;99.90
38726;DHT22;24474;48.906;8.808;2022-09-09T09:41:52;19.40;99.90
38726;DHT22;24474;48.906;8.808;2022-09-09T09:44:32;19.30;99.90
38726;DHT22;24474;48.906;8.808;2022-09-09T09:47:18;19.20;99.90
38726;DHT22;24474;48.906;8.808;2022-09-09T09:49:59;19.10;99.90
38726;DHT22;24474;48.906;8.808;2022-09-09T09:52:27;19.00;99.90
38726;DHT22;24474;48.906;8.808;2022-09-09T09:54:55;18.90;99.90
38726;DHT22;24474;48.906;8.808;2022-09-09T09:57:29;18.90;99.90
38726;DHT22;24474;48.906;8.808;2022-09-09T10:00:22;18.90;99.90
38726;DHT22;24474;48.906;8.808;2022-09-09T10:02:50;19.00;99.90
38726;DHT22;24474;48.906;8.808;2022-09-09T10:05:23;19.10;99.90
38726;DHT22;24474;48.906;8.808;2022-09-09T10:08:22;19.20;99.90
38726;DHT22;24474;48.906;8.808;2022-09-09T10:17:05;19.60;99.90
38726;DHT22;24474;48.906;8.808;2022-09-09T10:19:36;19.70;99.90
38726;DHT22;24474;48.906;8.808;2022-09-09T10:22:31;19.80;99.90
38726;DHT22;24474;48.906;8.808;2022-09-09T10:25:40;20.00;99.90
38726;DHT22;24474;48.906;8.808;2022-09-09T10:31:27;20.00;99.50
38726;DHT22;24474;48.906;8.808;2022-09-09T10:37:29;19.80;99.90
38726;DHT22;24474;48.906;8.808;2022-09-09T10:40:19;19.80;99.90
38726;DHT22;24474;48.906;8.808;2022-09-09T10:42:54;19.70;99.90
38726;DHT22;24474;48.906;8.808;2022-09-09T10:45:38;19.50;99.90
38726;DHT22;24474;48.906;8.808;2022-09-09T10:51:42;19.20;99.90
38726;DHT22;24474;48.906;8.808;2022-09-09T10:56:38;19.20;99.90
38726;DHT22;24474;48.906;8.808;2022-09-09T10:59:18;19.10;99.90
38726;DHT22;24474;48.906;8.808;2022-09-09T11:02:15;19.00;99.90
38726;DHT22;24474;48.906;8.808;2022-09-09T11:04:53;18.80;99.90
38726;DHT22;24474;48.906;8.808;2022-09-09T11:07:39;18.70;99.90
38726;DHT22;24474;48.906;8.808;2022-09-09T11:10:19;18.50;99.90
38726;DHT22;24474;48.906;8.808;2022-09-09T11:12:49;18.20;99.90
38726;DHT22;24474;48.906;8.808;2022-09-09T11:15:58;18.10;99.90
38726;DHT22;24474;48.906;8.808;2022-09-09T11:18:28;18.10;99.90
38726;DHT22;24474;48.906;8.808;2022-09-09T11:20:59;18.20;99.90
38726;DHT22;24474;48.906;8.808;2022-09-09T11:23:36;18.10;99.90
38726;DHT22;24474;48.906;8.808;2022-09-09T11:26:05;18.10;99.90
38726;DHT22;24474;48.906;8.808;2022-09-09T11:29:26;18.00;99.90
38726;DHT22;24474;48.906;8.808;2022-09-09T11:42:35;17.70;99.90
38726;DHT22;24474;48.906;8.808;2022-09-09T11:47:54;17.80;99.90
38726;DHT22;24474;48.906;8.808;2022-09-09T11:52:48;18.00;99.90
38726;DHT22;24474;48.906;8.808;2022-09-09T11:55:33;18.10;99.90
38726;DHT22;24474;48.906;8.808;2022-09-09T11:58:19;18.20;99.90
38726;DHT22;24474;48.906;8.808;2022-09-09T12:00:49;18.30;99.90
38726;DHT22;24474;48.906;8.808;2022-09-09T12:11:38;18.50;99.90
38726;DHT22;24474;48.906;8.808;2022-09-09T12:14:03;18.50;99.90
38726;DHT22;24474;48.906;8.808;2022-09-09T12:16:33;18.60;99.90
38726;DHT22;24474;48.906;8.808;2022-09-09T12:19:25;18.70;99.90
38726;DHT22;24474;48.906;8.808;2022-09-09T12:22:21;18.80;99.90
38726;DHT22;24474;48.906;8.808;2022-09-09T12:28:15;18.90;99.90
38726;DHT22;24474;48.906;8.808;2022-09-09T12:33:39;19.20;99.90
38726;DHT22;24474;48.906;8.808;2022-09-09T12:36:15;19.20;99.90
38726;DHT22;24474;48.906;8.808;2022-09-09T12:38:43;19.20;99.90
38726;DHT22;24474;48.906;8.808;2022-09-09T12:41:24;19.40;99.90
38726;DHT22;24474;48.906;8.808;2022-09-09T12:43:50;19.50;99.90
38726;DHT22;24474;48.906;8.808;2022-09-09T12:46:24;19.70;99.90
38726;DHT22;24474;48.906;8.808;2022-09-09T12:48:53;19.70;99.90
38726;DHT22;24474;48.906;8.808;2022-09-09T12:51:27;19.80;99.90
38726;DHT22;24474;48.906;8.808;2022-09-09T12:53:54;19.90;99.90
38726;DHT22;24474;48.906;8.808;2022-09-09T12:56:26;19.90;99.90
38726;DHT22;24474;48.906;8.808;2022-09-09T12:58:57;19.90;99.90
38726;DHT22;24474;48.906;8.808;2022-09-09T13:01:33;20.00;99.90
38726;DHT22;24474;48.906;8.808;2022-09-09T13:03:59;20.20;99.90
38726;DHT22;24474;48.906;8.808;2022-09-09T13:06:30;20.30;99.90
38726;DHT22;24474;48.906;8.808;2022-09-09T13:09:00;20.40;99.90
38726;DHT22;24474;48.906;8.808;2022-09-09T13:11:36;20.50;99.90
38726;DHT22;24474;48.906;8.808;2022-09-09T13:14:03;20.60;99.90
38726;DHT22;24474;48.906;8.808;2022-09-09T13:16:31;20.70;99.90
38726;DHT22;24474;48.906;8.808;2022-09-09T13:18:59;20.70;99.90
38726;DHT22;24474;48.906;8.808;2022-09-09T13:21:37;20.80;99.90
38726;DHT22;24474;48.906;8.808;2022-09-09T13:24:33;20.90;99.90
38726;DHT22;24474;48.906;8.808;2022-09-09T13:27:22;20.90;99.90
38726;DHT22;24474;48.906;8.808;2022-09-09T13:29:53;20.90;99.90
38726;DHT22;24474;48.906;8.808;2022-09-09T13:32:24;21.00;99.90
38726;DHT22;24474;48.906;8.808;2022-09-09T13:35:00;20.90;99.90
38726;DHT22;24474;48.906;8.808;2022-09-09T13:37:36;20.90;99.90
38726;DHT22;24474;48.906;8.808;2022-09-09T13:40:04;20.90;99.90
38726;DHT22;24474;48.906;8.808;2022-09-09T13:42:39;20.90;99.90
38726;DHT22;24474;48.906;8.808;2022-09-09T13:45:20;21.00;99.90
38726;DHT22;24474;48.906;8.808;2022-09-09T13:47:46;21.00;99.90
38726;DHT22;24474;48.906;8.808;2022-09-09T13:50:21;21.10;99.90
38726;DHT22;24474;48.906;8.808;2022-09-09T13:52:49;21.10;99.90
38726;DHT22;24474;48.906;8.808;2022-09-09T13:55:17;21.00;99.60
38726;DHT22;24474;48.906;8.808;2022-09-09T13:57:54;21.00;99.20
38726;DHT22;24474;48.906;8.808;2022-09-09T14:00:20;20.90;99.90
38726;DHT22;24474;48.906;8.808;2022-09-09T14:02:47;20.80;99.90
38726;DHT22;24474;48.906;8.808;2022-09-09T14:05:13;20.70;99.90
38726;DHT22;24474;48.906;8.808;2022-09-09T14:07:40;20.70;99.90
38726;DHT22;24474;48.906;8.808;2022-09-09T14:10:07;20.60;99.80
38726;DHT22;24474;48.906;8.808;2022-09-09T14:12:33;20.50;99.90
38726;DHT22;24474;48.906;8.808;2022-09-09T14:14:58;20.50;99.90
38726;DHT22;24474;48.906;8.808;2022-09-09T14:17:28;20.40;99.90
38726;DHT22;24474;48.906;8.808;2022-09-09T14:19:57;20.40;98.80
38726;DHT22;24474;48.906;8.808;2022-09-09T14:22:23;20.50;99.00
38726;DHT22;24474;48.906;8.808;2022-09-09T14:24:49;20.50;98.00
38726;DHT22;24474;48.906;8.808;2022-09-09T14:27:16;20.50;97.60
38726;DHT22;24474;48.906;8.808;2022-09-09T14:29:42;20.60;97.60
38726;DHT22;24474;48.906;8.808;2022-09-09T14:32:09;20.60;97.40
38726;DHT22;24474;48.906;8.808;2022-09-09T14:34:35;20.70;97.90
38726;DHT22;24474;48.906;8.808;2022-09-09T14:37:01;20.70;98.10
38726;DHT22;24474;48.906;8.808;2022-09-09T14:39:27;20.70;98.00
38726;DHT22;24474;48.906;8.808;2022-09-09T14:41:52;20.70;96.90
38726;DHT22;24474;48.906;8.808;2022-09-09T14:44:18;20.60;97.20
38726;DHT22;24474;48.906;8.808;2022-09-09T14:46:44;20.60;97.30
38726;DHT22;24474;48.906;8.808;2022-09-09T14:49:10;20.60;97.40
38726;DHT22;24474;48.906;8.808;2022-09-09T14:51:36;20.60;97.30
38726;DHT22;24474;48.906;8.808;2022-09-09T14:54:02;20.60;96.50
38726;DHT22;24474;48.906;8.808;2022-09-09T14:56:31;20.60;97.20
38726;DHT22;24474;48.906;8.808;2022-09-09T14:58:58;20.70;97.50
38726;DHT22;24474;48.906;8.808;2022-09-09T15:01:26;20.70;97.50
38726;DHT22;24474;48.906;8.808;2022-09-09T15:03:55;20.70;97.30
38726;DHT22;24474;48.906;8.808;2022-09-09T15:06:22;20.80;97.30
38726;DHT22;24474;48.906;8.808;2022-09-09T15:08:51;20.80;97.20
38726;DHT22;24474;48.906;8.808;2022-09-09T15:11:18;20.80;98.10
38726;DHT22;24474;48.906;8.808;2022-09-09T15:13:44;20.80;97.50
38726;DHT22;24474;48.906;8.808;2022-09-09T15:16:13;20.80;97.70
38726;DHT22;24474;48.906;8.808;2022-09-09T15:18:38;20.90;97.80
38726;DHT22;24474;48.906;8.808;2022-09-09T15:21:15;20.90;97.70
38726;DHT22;24474;48.906;8.808;2022-09-09T15:23:41;20.90;97.40
38726;DHT22;24474;48.906;8.808;2022-09-09T15:26:07;20.80;97.80
38726;DHT22;24474;48.906;8.808;2022-09-09T15:28:35;20.80;97.50
38726;DHT22;24474;48.906;8.808;2022-09-09T15:31:05;20.70;98.10
38726;DHT22;24474;48.906;8.808;2022-09-09T15:33:32;20.60;98.00
38726;DHT22;24474;48.906;8.808;2022-09-09T15:35:57;20.50;97.50
38726;DHT22;24474;48.906;8.808;2022-09-09T15:38:23;20.40;97.70
38726;DHT22;24474;48.906;8.808;2022-09-09T15:40:53;20.30;98.30
38726;DHT22;24474;48.906;8.808;2022-09-09T15:43:20;20.20;99.00
38726;DHT22;24474;48.906;8.808;2022-09-09T15:45:51;20.10;98.50
38726;DHT22;24474;48.906;8.808;2022-09-09T15:48:19;20.10;99.00
38726;DHT22;24474;48.906;8.808;2022-09-09T15:50:44;20.00;99.50
38726;DHT22;24474;48.906;8.808;2022-09-09T15:53:10;19.90;99.90
38726;DHT22;24474;48.906;8.808;2022-09-09T15:55:36;19.80;99.90
38726;DHT22;24474;48.906;8.808;2022-09-09T15:58:02;19.40;99.90
38726;DHT22;24474;48.906;8.808;2022-09-09T16:00:27;18.70;99.90
38726;DHT22;24474;48.906;8.808;2022-09-09T16:02:57;18.20;99.90
38726;DHT22;24474;48.906;8.808;2022-09-09T16:05:25;17.80;99.90
38726;DHT22;24474;48.906;8.808;2022-09-09T16:07:52;17.50;99.90
38726;DHT22;24474;48.906;8.808;2022-09-09T16:10:17;17.40;99.90
38726;DHT22;24474;48.906;8.808;2022-09-09T16:12:46;17.30;99.90
38726;DHT22;24474;48.906;8.808;2022-09-09T16:15:12;17.20;99.90
38726;DHT22;24474;48.906;8.808;2022-09-09T16:17:37;17.10;99.90
38726;DHT22;24474;48.906;8.808;2022-09-09T16:20:08;17.00;99.90
38726;DHT22;24474;48.906;8.808;2022-09-09T16:22:34;17.00;99.90
38726;DHT22;24474;48.906;8.808;2022-09-09T16:25:00;16.90;99.90
38726;DHT22;24474;48.906;8.808;2022-09-09T16:27:26;16.90;99.90
38726;DHT22;24474;48.906;8.808;2022-09-09T16:29:53;17.00;99.90
38726;DHT22;24474;48.906;8.808;2022-09-09T16:32:23;17.10;99.90
38726;DHT22;24474;48.906;8.808;2022-09-09T16:34:49;17.20;99.90
38726;DHT22;24474;48.906;8.808;2022-09-09T16:37:17;17.30;99.90
38726;DHT22;24474;48.906;8.808;2022-09-09T16:39:44;17.40;99.90
38726;DHT22;24474;48.906;8.808;2022-09-09T16:42:11;17.40;99.90
38726;DHT22;24474;48.906;8.808;2022-09-09T16:44:39;17.50;99.90
38726;DHT22;24474;48.906;8.808;2022-09-09T16:47:05;17.40;99.90
38726;DHT22;24474;48.906;8.808;2022-09-09T16:49:32;17.50;99.90
38726;DHT22;24474;48.906;8.808;2022-09-09T16:51:58;17.40;99.90
38726;DHT22;24474;48.906;8.808;2022-09-09T16:54:24;17.20;99.90
38726;DHT22;24474;48.906;8.808;2022-09-09T16:56:52;17.10;99.90
38726;DHT22;24474;48.906;8.808;2022-09-09T16:59:20;17.20;99.90
38726;DHT22;24474;48.906;8.808;2022-09-09T17:02:08;17.10;99.90
38726;DHT22;24474;48.906;8.808;2022-09-09T17:04:38;17.10;99.90
38726;DHT22;24474;48.906;8.808;2022-09-09T17:07:06;17.00;99.90
38726;DHT22;24474;48.906;8.808;2022-09-09T17:09:36;16.90;99.90
38726;DHT22;24474;48.906;8.808;2022-09-09T17:12:01;16.90;99.90
38726;DHT22;24474;48.906;8.808;2022-09-09T17:14:30;16.80;99.90
38726;DHT22;24474;48.906;8.808;2022-09-09T17:16:58;16.80;99.90
38726;DHT22;24474;48.906;8.808;2022-09-09T17:19:24;16.80;99.90
38726;DHT22;24474;48.906;8.808;2022-09-09T17:21:53;16.80;99.90
38726;DHT22;24474;48.906;8.808;2022-09-09T17:24:22;16.70;99.90
38726;DHT22;24474;48.906;8.808;2022-09-09T17:26:48;16.70;99.90
38726;DHT22;24474;48.906;8.808;2022-09-09T17:29:16;16.70;99.90
38726;DHT22;24474;48.906;8.808;2022-09-09T17:31:44;16.60;99.90
38726;DHT22;24474;48.906;8.808;2022-09-09T17:34:09;16.60;99.90
38726;DHT22;24474;48.906;8.808;2022-09-09T17:36:38;16.60;99.90
38726;DHT22;24474;48.906;8.808;2022-09-09T17:39:05;16.60;99.90
38726;DHT22;24474;48.906;8.808;2022-09-09T17:41:34;16.60;99.90
38726;DHT22;24474;48.906;8.808;2022-09-09T17:44:02;16.60;99.90
38726;DHT22;24474;48.906;8.808;2022-09-09T17:46:38;16.60;99.90
38726;DHT22;24474;48.906;8.808;2022-09-09T17:49:09;16.60;99.90
38726;DHT22;24474;48.906;8.808;2022-09-09T17:51:37;16.60;99.90
38726;DHT22;24474;48.906;8.808;2022-09-09T17:54:06;16.50;99.90
38726;DHT22;24474;48.906;8.808;2022-09-09T17:56:38;16.50;99.90
38726;DHT22;24474;48.906;8.808;2022-09-09T17:59:06;16.50;99.90
38726;DHT22;24474;48.906;8.808;2022-09-09T18:01:36;16.50;99.90
38726;DHT22;24474;48.906;8.808;2022-09-09T18:04:06;16.50;99.90
38726;DHT22;24474;48.906;8.808;2022-09-09T18:06:35;16.40;99.90